Coupland, TX

10:01 AM CDT on May 29, 2015 (GMT -0500)
Cameron | | Change Station
CLOSE
Current Station
Airport
Location: Cameron,
Elevation: 400 ft
Nearby Weather Stations

Elev 400 ft 30.88 °N, 96.97 °W | Updated 26 minutes ago

Partly Cloudy
Partly Cloudy
69 °F
Feels Like 69 °F
N
0
Wind Variable Wind from North

Today
High -- | Low -- °F
--% Chance of Precip.
Yesterday
High -- | Low -- °F
Precip. -- in
6:28 AM 8:25 PM
Waxing Gibbous, 84% visible
Pressure 29.96 in
Visibility 10.0 miles
Clouds Scattered Clouds 700 ft
Dew Point 66 °F
Humidity 91%
Rainfall 0.51 in
Snow Depth Not available.
UV 4 out of 12
Pollen 3.80 out of 12
Air Quality Not available.
Flu Activity Sporadic
METAR KT35 291435Z AUTO 00000KT 10SM SCT007 21/19 A2996 RMK AO2 T02060191

More Conditions Fewer Conditions

Pressure 29.96 in
Visibility 10.0 miles
Clouds Scattered Clouds 700 ft
Dew Point 66 °F
Humidity 91%
Rainfall 0.51 in
Snow Depth Not available.
UV 4 out of 12
Pollen 3.80 out of 12
Air Quality Not available.
Flu Activity Sporadic
METAR KT35 291435Z AUTO 00000KT 10SM SCT007 21/19 A2996 RMK AO2 T02060191

More Conditions Fewer Conditions

10-Day Weather Forecast

Almanac

Astronomy

May. 29, 2015 Rise Set
Actual Time
Civil Twilight
Nautical Twilight
Astronomical Twilight
Moon
Length of Visible Light
Length of Day
Tomorrow will be .
, % of the Moon is Illuminated

Today's Extremes

State Highs State Lows

Community

WunderPhotos

Upload Photos

1,825,292 photos uploaded!

WunderBlogs® & News

Nearby

Air Quality

  Air Quality AQ Index Pollutant
Not available.

Snow Depth

Station Depth Elevation

Earthquake Activity

City Distance Mag. Time & Date
Minimum magnitude displayed is 2.5.

Coastal Water Temperatures

Place Temperature

Stations

Nearby Weather Stations

Station Location Temp. Windchill Dew Point Humidity Wind Precip. Elev Updated Type